Pagina principală
METAR-TAF:

METAR-TAF

Aeroporturi :

Marshall, Texas, Statele Unite ale Americii

Latitudine: 32-31-14N, longitudine: 094-18-28W, elevație: 109 m

Observații meteo curente

Raportul a fost făcut în urmă cu 59 de minute, la 15:35 UTC
Vânt 3 kt de la Sud-vest
Temperatură 27°C
Umiditate 79%
Presiune 1012 hPa
Vizibilitate: 16.1 km
Cer senin

METAR: KASL 181535Z AUTO 22003KT 10SM CLR 27/23 A2989 RMK AO2 LTG DSNT SE T02700225 $

Ora: 10:34 (16:34 UTC)


TAF: lipsă

Observații și prognoze meteo pentru peste 4.000 de aeroporturi (rapoarte METAR și TAF).

Stațiile disponibile sunt reprezentate pe hartă prin puncte galbene și roșii.

Țineți indicatorul mouse-ului pe punctul dorit pentru a vedea denumirea stației.

Apoi, faceți clic pentru a vedea observațiile și prognozele meteorologice.

Pentru a schimba harta: Pentru mărire, faceți clic pe butoanele verzi cu cruce neagră; pentru micșorare, pe butonul verde cu o liniuță; pentru hărți învecinate, pe săgețile verzi.


METAR-TAF: